This is the latest recevied weather packets stored in our database for station/object W5COG. If no packets are shown the sender has not sent any weather packets the latest 10 day(s).
| Time | Temp. | Humidity | Pressure | Rain* | Wind** | Luminosity | Snow |
|---|---|---|---|---|---|---|---|
| 1778172028 | 18.89° C | 37% | 1018.4 hPa | 0 mm | - | 851 W/m² | - |
| 1778171728 | 18.89° C | 37% | 1018.5 hPa | 0 mm | - | 842 W/m² | - |
| 1778171428 | 18.89° C | 37% | 1018.6 hPa | 0 mm | - | 834 W/m² | - |
| 1778171128 | 18.89° C | 38% | 1018.6 hPa | 0 mm | - | 828 W/m² | - |
| 1778170228 | 18.33° C | 39% | 1018.8 hPa | 0 mm | - | 797 W/m² | - |
| 1778169928 | 18.33° C | 39% | 1018.8 hPa | 0 mm | - | 788 W/m² | - |
| 1778169629 | 18.33° C | 39% | 1018.7 hPa | 0 mm | - | 778 W/m² | - |
| 1778169329 | 18.33° C | 40% | 1018.8 hPa | 0 mm | - | 767 W/m² | - |
| 1778169028 | 17.78° C | 42% | 1018.7 hPa | 0 mm | - | 755 W/m² | - |
| 1778168728 | 17.78° C | 41% | 1018.8 hPa | 0 mm | - | 744 W/m² | - |
| 1778168428 | 17.22° C | 43% | 1018.8 hPa | 0 mm | - | 732 W/m² | - |
| 1778168129 | 17.22° C | 43% | 1018.8 hPa | 0 mm | - | 721 W/m² | - |
| 1778167828 | 17.22° C | 44% | 1018.9 hPa | 0 mm | - | 707 W/m² | - |
| 1778167528 | 17.22° C | 43% | 1019 hPa | 0 mm | - | 695 W/m² | - |
| 1778167228 | 16.67° C | 46% | 1019.1 hPa | 0 mm | - | 681 W/m² | - |
| 1778166928 | 16.67° C | 45% | 1019.2 hPa | 0 mm | - | 668 W/m² | - |
| 1778166628 | 16.67° C | 46% | 1019.3 hPa | 0 mm | - | 654 W/m² | - |
| 1778166328 | 16.11° C | 47% | 1019.4 hPa | 0 mm | - | 640 W/m² | - |
| 1778166029 | 16.11° C | 46% | 1019.4 hPa | 0 mm | - | 626 W/m² | - |
| 1778165729 | 15.56° C | 46% | 1019.5 hPa | 0 mm | - | 612 W/m² | - |
| 1778165429 | 15.56° C | 47% | 1019.5 hPa | 0 mm | - | 597 W/m² | - |
| 1778165128 | 15° C | 49% | 1019.6 hPa | 0 mm | - | 582 W/m² | - |
| 1778164828 | 15° C | 50% | 1019.6 hPa | 0 mm | - | 567 W/m² | - |
| 1778164528 | 15° C | 51% | 1019.6 hPa | 0 mm | - | 552 W/m² | - |
| 1778163028 | 13.33° C | 62% | 1019.7 hPa | 0 mm | - | 472 W/m² | - |
* Rain latest hour (hover to see other rain measurements)
** Current wind speed in m/s (hover to see current wind gust speed)